createdAt,value
2023-03-06T06:03:14.456Z,20.18
2023-03-06T09:38:19.112Z,20.77
2023-03-06T09:40:19.190Z,20.77
2023-03-06T09:41:19.227Z,20.78
2023-03-06T09:58:19.887Z,20.78
2023-03-06T09:59:20.348Z,20.78
2023-03-06T10:03:20.185Z,20.79
2023-03-06T10:05:20.181Z,20.79
2023-03-06T10:08:20.335Z,20.79
2023-03-06T10:09:20.355Z,20.79
2023-03-06T10:10:20.420Z,20.79
2023-03-06T10:11:20.462Z,20.79
2023-03-06T10:12:21.105Z,20.79
2023-03-06T10:14:20.631Z,20.79
2023-03-06T10:17:20.741Z,20.81
2023-03-06T10:19:19.872Z,20.81
2023-03-06T10:21:19.900Z,20.81
2023-03-06T10:22:19.929Z,20.81
2023-03-06T10:23:19.978Z,20.81
2023-03-06T10:24:21.022Z,20.81
2023-03-06T10:25:21.069Z,20.82
2023-03-06T10:26:20.224Z,20.82
2023-03-06T10:27:20.193Z,20.82
2023-03-06T10:29:21.281Z,20.83
2023-03-06T10:30:21.485Z,20.83
2023-03-06T10:31:21.387Z,20.82
2023-03-06T10:32:20.461Z,20.83
2023-03-06T10:36:20.665Z,20.83
2023-03-06T10:38:21.799Z,20.83
2023-03-06T10:57:21.940Z,20.85
2023-03-06T12:52:30.611Z,20.91
2023-03-06T12:53:29.947Z,20.92
2023-03-06T12:54:30.049Z,20.92
2023-03-06T12:55:30.076Z,20.93
2023-03-06T12:56:30.138Z,20.94
2023-03-06T12:57:30.219Z,20.95
2023-03-06T12:58:30.272Z,20.95
2023-03-06T12:59:30.310Z,20.97
2023-03-06T13:00:30.337Z,20.97
2023-03-06T13:01:30.412Z,20.97
2023-03-06T13:04:30.548Z,20.99
2023-03-06T13:05:30.571Z,20.99
2023-03-06T13:07:30.639Z,21.01
2023-03-06T13:08:30.695Z,21.02
2023-03-06T13:10:30.774Z,21.02
2023-03-06T13:11:30.799Z,21.02
2023-03-06T13:12:30.983Z,21.04
2023-03-06T13:13:30.920Z,21.04
2023-03-06T13:14:30.942Z,21.05
2023-03-06T13:15:30.964Z,21.05
2023-03-06T13:16:31.011Z,21.05
2023-03-06T13:17:30.029Z,21.06
2023-03-06T13:18:30.061Z,21.07
2023-03-06T13:19:31.065Z,21.07
2023-03-06T13:20:30.111Z,21.08
2023-03-06T13:21:31.100Z,21.08
2023-03-06T13:22:30.147Z,21.09
2023-03-06T13:23:31.173Z,21.08
2023-03-06T13:24:31.180Z,21.09
2023-03-06T13:25:31.243Z,21.10
2023-03-06T13:26:31.259Z,21.09
2023-03-06T13:27:31.261Z,21.09
2023-03-06T13:28:30.294Z,21.10
2023-03-06T13:29:31.371Z,21.10
2023-03-06T13:30:30.386Z,21.11
2023-03-06T13:31:30.463Z,21.12
2023-03-06T13:32:30.488Z,21.12
2023-03-06T13:33:31.467Z,21.10
2023-03-06T13:34:31.530Z,21.09
2023-03-06T13:35:31.670Z,21.09
2023-03-06T13:36:31.644Z,21.15
2023-03-06T13:37:31.681Z,21.19
2023-03-06T13:38:30.742Z,21.25
2023-03-06T13:39:31.713Z,21.34
2023-03-06T13:40:31.713Z,21.40
2023-03-06T13:41:31.725Z,21.45
2023-03-06T13:42:31.738Z,21.55
2023-03-06T13:43:32.036Z,21.62
2023-03-06T13:44:31.737Z,21.69
2023-03-06T13:45:31.847Z,21.74
2023-03-06T13:46:31.814Z,21.80
2023-03-06T13:47:31.757Z,21.84
2023-03-06T13:48:44.283Z,21.88
2023-03-06T13:49:31.803Z,21.91
2023-03-06T13:50:31.761Z,21.94
2023-03-06T13:51:31.752Z,21.97
2023-03-06T13:52:31.767Z,22.00
2023-03-06T13:53:31.755Z,22.05
2023-03-06T13:54:31.765Z,22.05
2023-03-06T13:55:31.752Z,22.07
2023-03-06T13:56:30.752Z,22.09
2023-03-06T13:57:31.742Z,22.11
2023-03-06T13:58:30.716Z,22.12
2023-03-06T13:59:30.695Z,22.12
2023-03-06T14:00:31.719Z,22.18
2023-03-06T14:01:31.761Z,22.18
2023-03-06T14:02:31.691Z,22.19
2023-03-06T14:03:31.672Z,22.18
2023-03-06T14:04:31.676Z,22.18
2023-03-06T14:05:32.152Z,22.18
2023-03-06T14:06:31.667Z,22.20
2023-03-06T14:07:31.662Z,22.20
2023-03-06T14:08:31.740Z,22.20
2023-03-06T14:09:31.733Z,22.19
2023-03-06T14:10:31.767Z,22.23
2023-03-06T14:11:31.816Z,22.23
2023-03-06T14:12:30.828Z,22.22
2023-03-06T14:13:38.395Z,22.24
2023-03-06T14:14:31.848Z,22.24
2023-03-06T14:15:31.864Z,22.24
2023-03-06T14:16:40.598Z,22.25
2023-03-06T14:17:31.853Z,22.23
2023-03-06T14:18:31.830Z,22.22
2023-03-06T14:19:30.903Z,22.22
2023-03-06T14:20:31.832Z,22.24
2023-03-06T14:21:31.878Z,22.25
2023-03-06T14:22:31.848Z,22.24
2023-03-06T14:23:31.792Z,22.23
2023-03-06T14:24:31.841Z,22.25
2023-03-06T14:25:31.837Z,22.29
2023-03-06T14:26:30.805Z,22.28
2023-03-06T14:27:30.794Z,22.26
2023-03-06T14:28:31.776Z,22.26
2023-03-06T14:29:31.783Z,22.27
2023-03-06T14:30:31.807Z,22.27
2023-03-06T14:31:30.842Z,22.30
2023-03-06T14:32:31.859Z,22.30
2023-03-06T14:33:30.830Z,22.30
2023-03-06T14:34:30.768Z,22.32
2023-03-06T14:35:31.788Z,22.31
2023-03-06T14:36:31.808Z,22.32
2023-03-06T14:37:31.703Z,22.29
2023-03-06T14:38:31.719Z,22.27
2023-03-06T14:39:31.691Z,22.28
2023-03-06T14:40:31.733Z,22.29
2023-03-06T14:41:31.687Z,22.29
2023-03-06T14:42:31.732Z,22.29
2023-03-06T14:43:31.683Z,22.33
2023-03-06T14:44:31.672Z,22.31
2023-03-06T14:45:31.670Z,22.35
2023-03-06T14:46:31.844Z,22.38
2023-03-06T14:47:31.701Z,22.38
2023-03-06T14:48:31.678Z,22.34
2023-03-06T14:49:30.676Z,22.36
2023-03-06T14:50:31.734Z,22.36
2023-03-06T14:51:31.662Z,22.35
2023-03-06T14:52:30.630Z,22.40
2023-03-06T14:53:31.659Z,22.41
2023-03-06T14:54:31.617Z,22.38
2023-03-06T14:55:30.647Z,22.38
2023-03-06T14:56:30.598Z,22.25
2023-03-06T14:57:31.584Z,22.14
2023-03-06T14:58:31.594Z,22.05
2023-03-06T14:59:31.575Z,22.01
2023-03-06T15:00:31.655Z,21.96
2023-03-06T15:01:31.610Z,21.90
2023-03-06T15:02:30.629Z,21.88
2023-03-06T15:03:33.771Z,21.84
2023-03-06T15:04:31.548Z,21.81
2023-03-06T15:05:31.641Z,21.79
2023-03-06T15:06:30.518Z,21.77
2023-03-06T15:07:31.529Z,21.75
2023-03-06T15:08:31.510Z,21.74
2023-03-06T15:09:31.535Z,21.72
2023-03-06T15:10:31.510Z,21.70
2023-03-06T15:11:31.497Z,21.69
2023-03-06T15:12:31.482Z,21.67
2023-03-06T15:13:31.490Z,21.65
2023-03-06T15:14:31.473Z,21.63
2023-03-06T15:15:31.490Z,21.60
2023-03-06T15:16:31.536Z,21.59
2023-03-06T15:17:30.474Z,21.58
2023-03-06T15:18:30.470Z,21.58
2023-03-06T15:19:31.449Z,21.56
2023-03-06T15:20:31.442Z,21.55
2023-03-06T15:21:30.458Z,21.54
2023-03-06T15:22:30.450Z,21.52
2023-03-06T15:23:31.417Z,21.50
2023-03-06T15:24:30.430Z,21.50
2023-03-06T15:25:30.432Z,21.50
2023-03-06T15:26:31.420Z,21.48
2023-03-06T15:27:30.402Z,21.48
2023-03-06T15:28:30.377Z,21.47
2023-03-06T15:29:31.384Z,21.47
2023-03-06T15:30:31.382Z,21.47
2023-03-06T15:31:31.432Z,21.45
2023-03-06T15:32:31.411Z,21.44
2023-03-06T15:33:31.385Z,21.44
2023-03-06T15:34:31.343Z,21.42
2023-03-06T15:35:31.405Z,21.42
2023-03-06T15:36:31.347Z,21.41
2023-03-06T15:37:31.355Z,21.42
2023-03-06T15:38:31.358Z,21.41
2023-03-06T15:39:31.350Z,21.41
2023-03-06T15:40:31.329Z,21.39
2023-03-06T15:41:31.326Z,21.39
2023-03-06T15:42:31.307Z,21.38
2023-03-06T15:43:31.296Z,21.37
2023-03-06T15:44:31.291Z,21.37
2023-03-06T15:45:31.355Z,21.36
2023-03-06T15:46:31.296Z,21.36
2023-03-06T15:47:31.262Z,21.35
2023-03-06T15:48:31.278Z,21.35
2023-03-06T15:49:30.250Z,21.34
2023-03-06T15:50:31.270Z,21.34
2023-03-06T15:51:31.249Z,21.34
2023-03-06T15:52:31.251Z,21.33
2023-03-06T15:53:31.260Z,21.34
2023-03-06T15:54:32.846Z,21.34
2023-03-06T15:55:31.234Z,21.32
2023-03-06T15:56:31.208Z,21.32
2023-03-06T15:57:31.266Z,21.31
2023-03-06T15:58:31.188Z,21.30
2023-03-06T15:59:30.190Z,21.32
2023-03-06T16:00:31.198Z,21.32
2023-03-06T16:01:30.287Z,21.31
2023-03-06T16:02:31.182Z,21.32
2023-03-06T16:03:31.185Z,21.32
2023-03-06T16:04:31.229Z,21.30
2023-03-06T16:05:31.175Z,21.29
2023-03-06T16:06:31.143Z,21.29
2023-03-06T16:07:30.145Z,21.28
2023-03-06T16:08:30.146Z,21.28
2023-03-06T16:09:31.162Z,21.27
2023-03-06T16:10:31.125Z,21.26
2023-03-06T16:11:41.900Z,21.24
2023-03-06T16:12:31.101Z,21.23
2023-03-06T16:13:30.132Z,21.22
2023-03-06T16:14:31.089Z,21.22
2023-03-06T16:15:31.111Z,21.21
2023-03-06T16:16:30.152Z,21.18
2023-03-06T16:17:30.076Z,21.17
2023-03-06T16:18:31.067Z,21.16
2023-03-06T16:19:31.073Z,21.14
2023-03-06T16:20:31.072Z,21.14
2023-03-06T16:21:31.053Z,21.12
2023-03-06T16:22:31.053Z,21.11
2023-03-06T16:23:31.044Z,21.09
2023-03-06T16:24:31.019Z,21.09
2023-03-06T16:25:31.096Z,21.07
2023-03-06T16:26:31.072Z,21.06
2023-03-06T16:27:30.063Z,21.04
2023-03-06T16:28:31.075Z,21.03
2023-03-06T16:29:31.086Z,21.01
